Latest Coastal Weather Observations for Parndana

IDS60701

Issued at 7:51 am CDT Friday 20 January 2017 (issued every 10 minutes, with the page automatically refreshed every 10 minutes)

About coastal observations | Map of coastal stations | Coastal observations for SA | Marine services | Other Formats
Station Details ID: 022843 Name: PARNDANA CFS AWS Lat: -35.79 Lon: 137.25 Height: 165.0 m
Data from the previous 72 hours. | See also: Recent months at Parndana
Date/Time
CDT
Temp
°C
Wind Pressure Rain since
9am
mm
Weather Cloud Vis
km
Sea
Height
m
Swell
Dir  Spd
kts
Gust
kts
hPa Trend Height
m
Period
s
Dir
20/07:30am 13.7 S 15 21 - - 17.2 - - - - - - -
20/07:00am 14.2 SSW 11 14 - - 17.2 - - - - - - -
20/06:30am 14.0 S 13 20 - - 17.2 - - - - - - -
20/06:00am 14.3 S 14 22 - - 17.2 - - - - - - -
20/05:30am 14.6 SSW 13 17 - - 17.2 - - - - - - -
20/05:00am 14.6 SSW 14 20 - - 17.2 - - - - - - -
20/04:30am 15.2 SSW 15 21 - - 16.8 - - - - - - -
20/04:00am 15.4 SSW 14 20 - - 16.8 - - - - - - -
20/03:30am 15.6 SW 11 15 - - 16.8 - - - - - - -
20/03:00am 15.5 SW 10 13 - - 16.8 - - - - - - -
20/02:30am 15.5 W 3 4 - - 16.8 - - - - - - -
20/02:00am 15.6 WSW 3 4 - - 16.8 - - - - - - -
20/01:30am 15.5 SSW 4 5 - - 16.8 - - - - - - -
20/01:00am 15.4 S 5 7 - - 16.8 - - - - - - -
20/12:30am 15.0 E 5 7 - - 16.8 - - - - - - -
20/12:00am 14.7 ESE 8 10 - - 16.8 Rain - - - - - -
 
Date/Time
CDT
Temp
°C
Wind Pressure Rain since
9am
mm
Weather Cloud Vis
km
Sea
Height
m
Swell
Dir  Spd
kts
Gust
kts
hPa Trend Height
m
Period
s
Dir
19/11:30pm 14.7 E 9 13 - - 15.6 - - - - - - -
19/11:00pm 14.8 SSE 12 17 - - 15.0 - - - - - - -
19/10:53pm 14.8 SSE 15 26 - - 14.8 - - - - - - -
19/10:30pm 15.1 S 18 25 - - 6.4 - - - - - - -
19/10:04pm 15.6 S 18 29 - - 5.6 - - - - - - -
19/10:00pm 15.6 S 19 29 - - 5.6 - - - - - - -
19/09:30pm 15.9 S 18 23 - - 5.6 - - - - - - -
19/09:00pm 16.4 S 14 21 - - 3.8 Rain - - - - - -
19/08:30pm 17.6 SW 16 23 - - 3.2 - - - - - - -
19/08:28pm 17.9 SW 15 23 - - 3.2 - - - - - - -
19/08:00pm 18.8 S 8 13 - - 2.0 - - - - - - -
19/07:30pm 21.1 SSE 6 8 - - 0.2 - - - - - - -
19/07:00pm 24.4 ESE 9 12 - - 0.0 - - - - - - -
19/06:30pm 25.1 ESE 9 13 - - 0.0 - - - - - - -
19/06:00pm 28.7 ESE 12 15 - - 0.0 - - - - - - -
19/05:30pm 30.1 E 10 15 - - 0.0 - - - - - - -
19/05:00pm 31.5 ENE 6 10 - - 0.0 - - - - - - -
19/04:30pm 31.4 ENE 8 13 - - 0.0 - - - - - - -
19/04:00pm 30.6 NE 8 12 - - 0.0 - - - - - - -
19/03:30pm 30.5 ENE 8 11 - - 0.0 - - - - - - -
19/03:00pm 29.4 ENE 9 14 - - 0.0 - - - - - - -
19/02:30pm 29.1 ENE 8 13 - - 0.0 - - - - - - -
19/02:00pm 28.1 NE 7 12 - - 0.0 - - - - - - -
19/01:30pm 26.1 NE 7 11 - - 0.0 - - - - - - -
19/01:00pm 25.0 ENE 8 12 - - 0.0 - - - - - - -
19/12:30pm 24.7 NE 6 11 - - 0.0 - - - - - - -
19/12:00pm 21.6 E 8 11 - - 0.0 - - - - - - -
19/11:30am 19.9 E 9 12 - - 0.0 - - - - - - -
19/11:00am 19.7 ESE 9 12 - - 0.0 - - - - - - -
19/10:30am 19.1 ESE 9 11 - - 0.0 - - - - - - -
19/10:00am 18.5 ESE 9 11 - - 0.0 - - - - - - -
19/09:30am 18.3 ESE 9 11 - - 0.0 - - - - - - -
19/09:00am 18.4 E 9 12 - - 0.0 - - - - - - -
19/08:30am 17.6 E 7 13 - - 0.0 - - - - - - -
19/08:00am 17.0 ESE 11 15 - - 0.0 - - - - - - -
19/07:30am 16.1 ESE 10 16 - - 0.0 - - - - - - -
19/07:00am 15.7 ESE 9 13 - - 0.0 - - - - - - -
19/06:30am 14.7 ESE 8 10 - - 0.0 - - - - - - -
19/06:00am 14.3 ESE 8 11 - - 0.0 - - - - - - -
19/05:30am 14.3 ESE 7 10 - - 0.0 - - - - - - -
19/05:00am 14.3 ESE 8 11 - - 0.0 - - - - - - -
19/04:30am 14.2 ESE 9 12 - - 0.0 - - - - - - -
19/04:00am 14.4 ESE 9 12 - - 0.0 - - - - - - -
19/03:30am 14.5 ESE 9 14 - - 0.0 - - - - - - -
19/03:00am 14.5 SE 10 14 - - 0.0 - - - - - - -
19/02:30am 14.4 SE 11 15 - - 0.0 - - - - - - -
19/02:00am 14.3 SE 13 17 - - 0.0 - - - - - - -
19/01:30am 14.2 SE 12 16 - - 0.0 - - - - - - -
19/01:00am 14.1 SE 11 15 - - 0.0 - - - - - - -
19/12:30am 14.1 SE 11 15 - - 0.0 - - - - - - -
19/12:00am 14.1 SE 11 16 - - 0.0 - - - - - - -
 
Date/Time
CDT
Temp
°C
Wind Pressure Rain since
9am
mm
Weather Cloud Vis
km
Sea
Height
m
Swell
Dir  Spd
kts
Gust
kts
hPa Trend Height
m
Period
s
Dir
18/11:30pm 14.2 SE 11 16 - - 0.0 - - - - - - -
18/11:00pm 14.3 SE 12 16 - - 0.0 - - - - - - -
18/10:30pm 14.4 SE 10 16 - - 0.0 - - - - - - -
18/10:00pm 14.6 SE 10 16 - - 0.0 - - - - - - -
18/09:30pm 14.5 SE 10 15 - - 0.0 - - - - - - -
18/09:00pm 14.7 SE 11 15 - - 0.0 - - - - - - -
18/08:30pm 15.0 SE 11 15 - - 0.0 - - - - - - -
18/08:00pm 15.8 SE 15 21 - - 0.0 - - - - - - -
18/07:30pm 16.8 SE 16 21 - - 0.0 - - - - - - -
18/07:00pm 17.7 SE 16 23 - - 0.0 - - - - - - -
18/06:30pm 17.9 SE 15 23 - - 0.0 - - - - - - -
18/06:00pm 18.3 SE 16 21 - - 0.0 - - - - - - -
18/05:30pm 17.8 SE 16 22 - - 0.0 - - - - - - -
18/05:00pm 18.1 SE 16 21 - - 0.0 - - - - - - -
18/04:30pm 18.5 SE 16 20 - - 0.0 - - - - - - -
18/04:00pm 18.6 SE 15 20 - - 0.0 - - - - - - -
18/03:30pm 18.9 SE 16 22 - - 0.0 - - - - - - -
18/03:00pm 19.0 SE 15 21 - - 0.0 - - - - - - -
18/02:30pm 18.5 SE 13 17 - - 0.0 - - - - - - -
18/02:00pm 18.9 SE 12 18 - - 0.0 - - - - - - -
18/01:30pm 18.9 SE 14 21 - - 0.0 - - - - - - -
18/01:00pm 20.0 SE 14 19 - - 0.0 - - - - - - -
18/12:30pm 18.3 SE 12 17 - - 0.0 - - - - - - -
18/12:00pm 18.9 SE 14 23 - - 0.0 - - - - - - -
18/11:30am 18.3 SE 13 20 - - 0.0 - - - - - - -
18/11:00am 18.5 SE 14 19 - - 0.0 - - - - - - -
18/10:30am 18.3 SE 15 21 - - 0.0 - - - - - - -
18/10:00am 17.5 ESE 16 22 - - 0.0 - - - - - - -
18/09:30am 17.3 SE 12 19 - - 0.0 - - - - - - -
18/09:00am 16.4 SE 13 20 - - 0.0 - - - - - - -
18/08:30am 16.2 SSE 15 21 - - 0.0 - - - - - - -
18/08:00am 15.9 SSE 14 21 - - 0.0 - - - - - - -
18/07:30am 15.7 SSE 15 19 - - 0.0 - - - - - - -
18/07:00am 15.2 SSE 12 15 - - 0.0 - - - - - - -
18/06:30am 14.9 SSE 12 16 - - 0.0 - - - - - - -
18/06:00am 14.7 SSE 11 16 - - 0.0 - - - - - - -
18/05:30am 14.6 SSE 12 17 - - 0.0 - - - - - - -
18/05:00am 14.6 SSE 12 17 - - 0.0 - - - - - - -
18/04:30am 14.4 SSE 15 19 - - 0.0 - - - - - - -
18/04:00am 14.5 SSE 12 17 - - 0.0 - - - - - - -
18/03:30am 14.6 SSE 15 22 - - 0.0 - - - - - - -
18/03:00am 14.9 SSE 14 18 - - 0.0 - - - - - - -
18/02:30am 14.9 SSE 13 17 - - 0.0 - - - - - - -
18/02:00am 15.1 SSE 13 16 - - 0.0 - - - - - - -
18/01:30am 15.3 SSE 14 21 - - 0.0 - - - - - - -
18/01:00am 16.1 SSE 13 18 - - 0.0 - - - - - - -
18/12:30am 16.2 SSE 10 15 - - 0.0 - - - - - - -
18/12:00am 16.6 SSE 13 17 - - 0.0 - - - - - - -
 
Date/Time
CDT
Temp
°C
Wind Pressure Rain since
9am
mm
Weather Cloud Vis
km
Sea
Height
m
Swell
Dir  Spd
kts
Gust
kts
hPa Trend Height
m
Period
s
Dir
17/11:30pm 16.7 SSE 13 19 - - 0.0 - - - - - - -
17/11:00pm 16.8 SSE 15 20 - - 0.0 - - - - - - -
17/10:30pm 16.5 SSE 11 15 - - 0.0 - - - - - - -
17/10:00pm 16.2 SSE 12 16 - - 0.0 - - - - - - -
17/09:30pm 16.5 SSE 14 18 - - 0.0 - - - - - - -
17/09:00pm 16.7 SSE 13 19 - - 0.0 - - - - - - -
17/08:30pm 16.7 SSE 15 19 - - 0.0 - - - - - - -
17/08:02pm 17.3 S 17 28 - - 0.0 - - - - - - -
17/08:00pm 17.5 S 18 28 - - 0.0 - - - - - - -
17/07:33pm 17.8 S 21 32 - - 0.0 - - - - - - -
17/07:30pm 17.8 S 22 32 - - 0.0 - - - - - - -
17/07:00pm 18.6 SSW 24 34 - - 0.0 - - - - - - -
17/06:30pm 19.2 S 20 33 - - 0.0 - - - - - - -
17/06:19pm 19.2 S 21 33 - - 0.0 - - - - - - -
17/06:00pm 20.0 S 20 28 - - 0.0 - - - - - - -
17/05:30pm 24.1 S 21 27 - - 0.0 - - - - - - -
17/05:00pm 25.8 S 15 19 - - 0.0 - - - - - - -
17/04:30pm 25.0 S 15 19 - - 0.0 - - - - - - -
17/04:00pm 28.1 S 11 15 - - 0.0 - - - - - - -
17/03:30pm 28.9 S 13 18 - - 0.0 - - - - - - -
17/03:00pm 32.2 S 10 14 - - 0.0 - - - - - - -
17/02:30pm 35.8 W 11 17 - - 0.0 - - - - - - -
17/02:00pm 34.7 W 11 16 - - 0.0 - - - - - - -
17/01:30pm 34.9 WNW 11 16 - - 0.0 - - - - - - -
17/01:00pm 33.2 NW 12 17 - - 0.0 - - - - - - -
17/12:30pm 32.9 NW 12 17 - - 0.0 - - - - - - -
17/12:00pm 32.1 NW 9 12 - - 0.0 - - - - - - -
17/11:30am 32.2 NNW 11 17 - - 0.0 - - - - - - -
17/11:00am 31.8 NW 9 13 - - 0.0 - - - - - - -
17/10:30am 31.6 NNW 9 14 - - 0.0 - - - - - - -
17/10:00am 30.6 NNW 7 11 - - 0.0 - - - - - - -
17/09:30am 29.3 NNW 8 11 - - 0.0 - - - - - - -
17/09:00am 27.3 N 5 7 - - 0.0 - - - - - - -
17/08:30am 25.8 N 6 7 - - 0.0 - - - - - - -
17/08:00am 24.8 N 6 8 - - 0.0 - - - - - - -

Other Formats:

Comma delimited format used in spreadsheet applications
http://www.bom.gov.au/fwo/IDS60701/IDS60701.94807.axf

JavaScript Object Notation format (JSON) in row-major order
http://www.bom.gov.au/fwo/IDS60701/IDS60701.94807.json